Whipholt, Minnesota
Current Conditions -  °F | °C
As of 7:15 PM on Sunday 23 Nov 2014 (Local Time) from KY49 Reporting Station
Overcast Overcast  
Wind Chill: 26°   Ceiling: 1400
Heat Index: 33°   Visibility: 10mi
Dew Point: 29°   Wind: 8mph
Humidity: 85%   Direction: 280°W
Pressure: 29.4"   Gusts: NA
Location:  47.0507°N, 94.6083°W
Report Text: KY49 240115Z AUTO 28007KT 10SM OVC014 01/M02 A2940 RMK AO2 T00051018
Loading
Personal Weather Stations






























Interactive Weather Map New forecast layout! Learn more

10-Day Weather Forecast

Advertisements
Track Severe Weather on mobile